Portada
METAR-TAF:

METAR-TAF

Aeropuertos :

Aeropuerto de Santander

Santander, España

latitud: 43-26N, longitud: 003-49W, altitud: 6 m

Observación

El informe se hizo hace 10 minutos, a las 13:00 UTC
Viento 7 kt del este, variando entre noreste y sureste
Temperatura 13°C
Humedad 54%
Presión 1035 hPa
Visibilidad 10 km o más
sin nubes por debajo de 1500 m y sin presencia de cumulonimbus.

METAR: LEXJ 031300Z 10007KT 050V130 CAVOK 13/04 Q1035

Hora: 14:10 (13:10 UTC)

Pronóstico

El informe se hizo hace 5 horas y 10 minutos, a las 08:00 UTC
Pronóstico válido del 03 a las 09 UTC al 04 a las 09 UTC
Viento 9 kt del este-noreste
Visibilidad 10 km o más
sin nubes por debajo de 1500 m y sin presencia de cumulonimbus.

TAF: LEXJ 030800Z 0309/0409 07009KT CAVOK TX12/0313Z TN01/0404Z

Observaciones y pronósticos meteorológicos de más de 4000 aeropuertos (mensajes METAR y TAF).

Los puntos amarillos y rojos representan las estaciones disponibles.

Ponga el ratón en el punto deseado para ver el nombre de la estación.

Haga clic para ver las observaciones y los pronósticos meteorológicos.

Para cambiar el mapa : haga clic en los botones verdes con una cruz de color negro para hacer un zoom, en el botón verde con un guión para alejar o en las flechas verdes para mapas adyacentes.


METAR-TAF: